Etusivu
METAR-TAF:

METAR-TAF

Lentoasemat :

Istanbul Atatürk, Turkki

Istanbul-Atatürkin kansainvälinen lentoasema

Leveyspiiri: 40-58N, Pituuspiiri: 028-49E, korkeus merenpinnasta: 48 m

Tämänhetkinen sää

Tämä raportti tehtiin 32 minuuttia sitten, kello 01.50 UTC
Tuuli 6 kn pohjoisesta/koillisesta
Lämpötila 16°C
Kosteus 77%
Ilmanpaine 1012 hPa
Näkyvyys 10 km tai enemmän
Hajanaisia pilviä 3500 ft:n korkeudessa
Hajonneita pilviä 10000 ft:n korkeudessa

METAR: LTBA 270150Z 03006KT 9999 SCT035 BKN100 16/12 Q1012 NOSIG RMK RWY17L 03006KT 360V060 RWY05 /////KT RWY23 04008KT

Aika: 05:22 (02:22 UTC)

Sääennuste

Tämä raportti tehtiin 3 tuntia ja 42 minuuttia sitten, kello 22.40 UTC
Ennuste voimassa 27. päivästä klo 00 UTC - 28. päivään klo 06 UTC
Tuuli 9 kn pohjoisesta/koillisesta
Näkyvyys 10 km tai enemmän
Hajanaisia pilviä 3000 ft:n korkeudessa
Hajonneita pilviä 10000 ft:n korkeudessa

TAF: LTBA 262240Z 2700/2806 02009KT 9999 SCT030 BKN100

Säähavainnot ja -ennusteet yli 4000 lentoasemalta (METAR- ja TAF-raportit).

Käytössä olevat sääasemat on merkitty karttaan keltaisilla ja punaisilla pisteillä.

Aseta hiiri pisteen päälle nähdäksesi sääaseman nimen.

Klikkaa sitten nähdäksesi säähavainnot ja -ennusteet.

Kartan vaihtaminen: klikkaa mustalla rastilla varustettuja vihreitä pisteitä, niin voit zoomata sisään; viivalla varustettua vihreää pistettä, niin voit zoomata ulos tai vihreitä nuolia, niin pääset viereisille kartoille.


METAR-TAF: